createdAt,value
2023-02-11T00:03:45.288Z,51.94
2023-02-11T00:08:47.837Z,51.61
2023-02-11T00:13:50.204Z,52.02
2023-02-11T00:18:54.434Z,51.78
2023-02-11T00:23:58.366Z,51.18
2023-02-11T00:29:01.917Z,51.68
2023-02-11T00:34:04.157Z,51.57
2023-02-11T00:39:07.567Z,52.08
2023-02-11T00:44:09.654Z,51.83
2023-02-11T00:49:12.083Z,51.17
2023-02-11T00:54:14.235Z,50.94
2023-02-11T00:59:16.533Z,51.28
2023-02-11T01:04:18.820Z,51.39
2023-02-11T01:09:21.585Z,51.66
2023-02-11T01:14:23.900Z,51.87
2023-02-11T01:19:25.980Z,52.21
2023-02-11T01:24:28.568Z,52.58
2023-02-11T01:29:30.958Z,52.46
2023-02-11T01:34:33.055Z,51.89
2023-02-11T01:39:35.974Z,51.53
2023-02-11T01:44:40.617Z,52.48
2023-02-11T01:49:50.375Z,51.54
2023-02-11T01:55:19.267Z,51.36
2023-02-11T02:00:26.677Z,50.79
2023-02-11T02:05:31.701Z,50.56
2023-02-11T02:10:37.006Z,50.79
2023-02-11T02:15:51.062Z,50.58
2023-02-11T02:21:13.784Z,50.23
2023-02-11T02:26:52.087Z,50.69
2023-02-11T02:32:12.752Z,51.35
2023-02-11T02:37:47.941Z,51.14
2023-02-11T02:42:51.386Z,51.35
2023-02-11T02:47:53.845Z,51.10
2023-02-11T02:58:36.412Z,51.08
2023-02-11T03:04:12.598Z,50.13
2023-02-11T03:09:27.189Z,50.12
2023-02-11T03:14:31.151Z,49.99
2023-02-11T03:19:39.183Z,50.02
2023-02-11T03:24:41.931Z,50.72
2023-02-11T03:29:56.111Z,50.11
2023-02-11T03:35:04.202Z,50.34
2023-02-11T03:40:11.134Z,50.44
2023-02-11T03:45:18.987Z,50.16
2023-02-11T03:50:22.487Z,50.20
2023-02-11T03:55:27.060Z,50.46
2023-02-11T04:00:34.375Z,50.46
2023-02-11T04:05:37.082Z,50.85
2023-02-11T04:10:39.271Z,51.05
2023-02-11T04:15:41.415Z,51.08
2023-02-11T04:20:43.798Z,51.07
2023-02-11T04:25:46.006Z,51.98
2023-02-11T04:30:50.744Z,52.28
2023-02-11T04:35:53.030Z,52.29
2023-02-11T04:40:55.243Z,52.69
2023-02-11T04:45:59.146Z,52.59
2023-02-11T04:51:02.737Z,51.77
2023-02-11T04:56:05.275Z,51.65
2023-02-11T05:01:09.753Z,51.38
2023-02-11T05:06:12.099Z,50.32
2023-02-11T05:11:21.901Z,51.48
2023-02-11T05:16:24.249Z,51.19
2023-02-11T05:21:26.440Z,50.54
2023-02-11T05:26:28.661Z,50.67
2023-02-11T05:31:30.837Z,51.32
2023-02-11T05:36:33.569Z,50.90
2023-02-11T05:41:35.731Z,51.69
2023-02-11T05:46:37.974Z,51.51
2023-02-11T05:51:40.308Z,51.83
2023-02-11T05:56:44.717Z,51.82
2023-02-11T06:01:47.091Z,51.74
2023-02-11T06:06:49.270Z,52.08
2023-02-11T06:11:51.353Z,52.51
2023-02-11T06:16:53.548Z,52.40
2023-02-11T06:21:56.858Z,52.30
2023-02-11T06:26:58.934Z,52.14
2023-02-11T06:32:01.149Z,52.26
2023-02-11T06:37:03.699Z,52.29
2023-02-11T06:42:07.921Z,51.47
2023-02-11T06:47:10.255Z,51.72
2023-02-11T06:52:12.490Z,51.22
2023-02-11T06:57:14.637Z,51.08
2023-02-11T07:02:19.666Z,51.23
2023-02-11T07:07:22.857Z,50.76
2023-02-11T07:12:25.013Z,50.85
2023-02-11T07:17:27.188Z,51.16
2023-02-11T07:22:29.298Z,50.82
2023-02-11T07:27:31.487Z,50.93
2023-02-11T07:32:33.636Z,52.49
2023-02-11T07:37:35.997Z,51.34
2023-02-11T07:42:40.713Z,50.78
2023-02-11T07:47:43.201Z,50.89
2023-02-11T07:52:45.397Z,51.12
2023-02-11T07:57:47.567Z,50.55
2023-02-11T08:02:49.731Z,49.87
2023-02-11T08:07:53.360Z,49.65
2023-02-11T08:12:55.730Z,48.90
2023-02-11T08:17:58.007Z,48.35
2023-02-11T08:23:00.225Z,47.30
2023-02-11T08:28:02.357Z,47.79
2023-02-11T08:33:05.093Z,48.35
2023-02-11T08:38:07.272Z,48.13
2023-02-11T08:43:09.411Z,48.98
2023-02-11T08:48:11.665Z,49.93
2023-02-11T08:53:13.985Z,49.71
2023-02-11T08:58:18.787Z,48.98
2023-02-11T09:03:24.063Z,48.23
2023-02-11T09:08:26.410Z,47.66
2023-02-11T09:13:28.720Z,47.63
2023-02-11T09:18:31.385Z,47.15
2023-02-11T09:23:35.023Z,46.47
2023-02-11T09:28:37.474Z,46.75
2023-02-11T09:33:42.452Z,46.19
2023-02-11T09:38:45.451Z,45.75
2023-02-11T09:43:49.991Z,46.39
2023-02-11T09:48:56.625Z,45.80
2023-02-11T09:54:05.609Z,46.29
2023-02-11T09:59:14.398Z,45.18
2023-02-11T10:04:47.756Z,44.80
2023-02-11T10:10:01.972Z,44.44
2023-02-11T10:15:22.068Z,43.27
2023-02-11T10:20:54.845Z,42.72
2023-02-11T10:25:58.161Z,42.57
2023-02-11T10:31:09.175Z,42.31
2023-02-11T10:36:16.806Z,41.75
2023-02-11T10:41:24.822Z,42.44
2023-02-11T10:46:32.596Z,41.31
2023-02-11T10:51:34.902Z,41.31
2023-02-11T10:56:40.292Z,40.93
2023-02-11T11:01:42.485Z,39.06
2023-02-11T11:06:44.854Z,39.09
2023-02-11T11:11:54.147Z,38.71
2023-02-11T11:16:56.353Z,38.87
2023-02-11T11:21:58.586Z,37.72
2023-02-11T11:27:03.546Z,37.86
2023-02-11T11:32:17.782Z,37.31
2023-02-11T11:37:28.474Z,37.28
2023-02-11T11:42:33.619Z,37.29
2023-02-11T11:47:43.395Z,36.39
2023-02-11T11:52:48.135Z,36.33
2023-02-11T11:57:51.249Z,35.91
2023-02-11T12:03:42.667Z,33.67
2023-02-11T12:09:21.950Z,35.55
2023-02-11T12:14:33.259Z,35.53
2023-02-11T12:19:59.703Z,34.07
2023-02-11T12:25:25.794Z,31.68
2023-02-11T12:30:59.916Z,33.13
2023-02-11T12:36:13.883Z,32.89
2023-02-11T12:41:51.476Z,33.10
2023-02-11T12:47:37.506Z,32.31
2023-02-11T12:53:04.616Z,31.92
2023-02-11T12:58:17.596Z,31.02
2023-02-11T13:03:43.681Z,31.69
2023-02-11T13:08:53.988Z,31.70
2023-02-11T13:14:13.297Z,31.06
2023-02-11T13:19:33.459Z,31.07
2023-02-11T13:24:51.599Z,31.05
2023-02-11T13:30:12.171Z,31.09
2023-02-11T13:35:39.840Z,29.91
2023-02-11T13:40:42.089Z,30.63
2023-02-11T13:45:47.496Z,29.90
2023-02-11T13:50:53.817Z,29.06
2023-02-11T13:56:12.408Z,29.34
2023-02-11T14:01:44.646Z,30.23
2023-02-11T14:07:44.142Z,29.36
2023-02-11T14:13:06.675Z,29.66
2023-02-11T14:18:39.621Z,29.18
2023-02-11T14:23:42.594Z,30.02
2023-02-11T14:28:47.131Z,30.29
2023-02-11T14:33:59.986Z,29.68
2023-02-11T14:39:27.454Z,29.83
2023-02-11T14:44:32.841Z,29.46
2023-02-11T14:49:40.286Z,29.32
2023-02-11T14:54:44.374Z,28.91
2023-02-11T15:00:04.582Z,28.01
2023-02-11T15:05:22.557Z,28.79
2023-02-11T15:10:36.371Z,28.31
2023-02-11T15:15:41.150Z,28.25
2023-02-11T15:20:43.531Z,28.42
2023-02-11T15:25:56.233Z,28.91
2023-02-11T15:31:14.120Z,29.31
2023-02-11T15:36:18.045Z,30.21
2023-02-11T15:41:49.494Z,31.35
2023-02-11T15:46:51.789Z,31.45
2023-02-11T15:51:57.403Z,31.70
2023-02-11T15:57:08.837Z,31.79
2023-02-11T16:02:33.193Z,32.89
2023-02-11T16:07:40.807Z,32.42
2023-02-11T16:12:52.208Z,32.34
2023-02-11T16:17:55.001Z,32.19
2023-02-11T16:22:57.296Z,32.09
2023-02-11T16:27:59.552Z,31.80
2023-02-11T16:33:01.975Z,32.48
2023-02-11T16:38:04.120Z,32.43
2023-02-11T16:43:06.345Z,32.52
2023-02-11T16:48:10.205Z,33.06
2023-02-11T16:53:13.956Z,33.33
2023-02-11T16:58:16.480Z,33.54
2023-02-11T17:03:27.428Z,34.08
2023-02-11T17:08:30.944Z,34.07
2023-02-11T17:13:33.790Z,34.61
2023-02-11T17:18:37.291Z,34.64
2023-02-11T17:23:39.943Z,35.40
2023-02-11T17:28:42.190Z,35.41
2023-02-11T17:33:44.479Z,37.14
2023-02-11T17:38:46.749Z,37.83
2023-02-11T17:43:49.015Z,39.12
2023-02-11T17:48:53.282Z,39.16
2023-02-11T17:53:58.483Z,39.28
2023-02-11T17:59:02.740Z,39.02
2023-02-11T18:04:05.972Z,39.09
2023-02-11T18:09:08.263Z,39.15
2023-02-11T18:14:10.783Z,39.09
2023-02-11T18:19:13.446Z,39.18
2023-02-11T18:24:15.693Z,39.51
2023-02-11T18:29:17.846Z,40.07
2023-02-11T18:34:20.033Z,40.12
2023-02-11T18:39:24.476Z,40.01
2023-02-11T18:44:27.622Z,39.64
2023-02-11T18:49:29.782Z,40.12
2023-02-11T18:54:32.039Z,40.06
2023-02-11T18:59:34.259Z,39.80
2023-02-11T19:04:37.867Z,40.44
2023-02-11T19:09:40.077Z,41.48
2023-02-11T19:14:42.245Z,41.59
2023-02-11T19:19:44.422Z,41.56
2023-02-11T19:24:46.695Z,41.62
2023-02-11T19:29:49.043Z,41.41
2023-02-11T19:34:52.260Z,41.22
2023-02-11T19:39:54.503Z,41.35
2023-02-11T19:44:57.589Z,42.07
2023-02-11T19:49:59.924Z,41.90
2023-02-11T19:55:02.140Z,41.74
2023-02-11T20:00:05.339Z,41.47
2023-02-11T20:05:08.245Z,41.43
2023-02-11T20:10:10.846Z,41.54
2023-02-11T20:15:13.112Z,41.27
2023-02-11T20:20:15.348Z,41.69
2023-02-11T20:25:17.630Z,42.14
2023-02-11T20:30:21.885Z,42.94
2023-02-11T20:35:24.037Z,42.97
2023-02-11T20:40:27.455Z,43.01
2023-02-11T20:45:29.710Z,42.56
2023-02-11T20:50:31.849Z,42.40
2023-02-11T20:55:38.416Z,42.66
2023-02-11T21:00:40.615Z,41.98
2023-02-11T21:05:42.815Z,42.66
2023-02-11T21:10:44.986Z,42.92
2023-02-11T21:15:47.236Z,42.94
2023-02-11T21:20:49.718Z,42.84
2023-02-11T21:25:54.143Z,42.90
2023-02-11T21:30:58.271Z,42.56
2023-02-11T21:36:03.082Z,43.49
2023-02-11T21:41:06.239Z,43.30
2023-02-11T21:46:14.807Z,44.21
2023-02-11T21:51:23.326Z,43.95
2023-02-11T21:56:28.800Z,43.97
2023-02-11T22:01:33.649Z,44.55
2023-02-11T22:06:35.951Z,44.53
2023-02-11T22:11:38.382Z,44.20
2023-02-11T22:16:40.792Z,44.17
2023-02-11T22:21:43.748Z,44.48
2023-02-11T22:26:45.878Z,43.79
2023-02-11T22:31:48.102Z,43.69
2023-02-11T22:36:50.244Z,44.22
2023-02-11T22:41:54.732Z,44.58
2023-02-11T22:46:57.250Z,45.94
2023-02-11T22:51:59.874Z,45.49
2023-02-11T22:57:02.075Z,44.82
2023-02-11T23:02:04.488Z,44.13
2023-02-11T23:07:07.457Z,44.16
2023-02-11T23:12:09.569Z,44.41
2023-02-11T23:17:11.781Z,44.51
2023-02-11T23:22:13.885Z,44.52
2023-02-11T23:27:16.010Z,44.26
2023-02-11T23:32:19.652Z,44.50
2023-02-11T23:37:21.924Z,44.26
2023-02-11T23:42:24.091Z,43.99
2023-02-11T23:47:26.204Z,44.19
2023-02-11T23:52:28.656Z,44.75
2023-02-11T23:57:33.256Z,44.88
